createdAt,value
2023-05-27T00:00:36.213Z,1023.3
2023-05-27T00:18:36.623Z,1023.3
2023-05-27T00:19:36.493Z,1023.2
2023-05-27T00:20:36.772Z,1023.3
2023-05-27T00:21:36.477Z,1023.3
2023-05-27T00:22:36.505Z,1023.3
2023-05-27T00:23:36.491Z,1023.3
2023-05-27T00:24:36.516Z,1023.3
2023-05-27T00:25:36.547Z,1023.3
2023-05-27T00:26:36.533Z,1023.3
2023-05-27T00:27:36.600Z,1023.3
2023-05-27T00:28:36.614Z,1023.2
2023-05-27T00:29:36.592Z,1023.3
2023-05-27T00:30:36.571Z,1023.3
2023-05-27T00:31:36.655Z,1023.3
2023-05-27T00:32:36.693Z,1023.3
2023-05-27T00:33:36.617Z,1023.3
2023-05-27T00:34:36.646Z,1023.3
2023-05-27T00:35:36.674Z,1023.3
2023-05-27T00:36:36.731Z,1023.3
2023-05-27T00:37:36.665Z,1023.3
2023-05-27T00:38:36.702Z,1023.3
2023-05-27T00:39:36.694Z,1023.3
2023-05-27T00:40:36.935Z,1023.3
2023-05-27T00:41:36.796Z,1023.2
2023-05-27T00:42:36.751Z,1023.2
2023-05-27T00:43:36.764Z,1023.2
2023-05-27T00:44:36.744Z,1023.2
2023-05-27T00:45:36.864Z,1023.2
2023-05-27T00:46:36.954Z,1023.2
2023-05-27T00:47:36.810Z,1023.3
2023-05-27T00:48:36.816Z,1023.2
2023-05-27T00:49:36.850Z,1023.3
2023-05-27T00:50:36.805Z,1023.2
2023-05-27T00:51:36.813Z,1023.2
2023-05-27T00:52:36.856Z,1023.2
2023-05-27T00:53:36.847Z,1023.2
2023-05-27T00:54:36.854Z,1023.2
2023-05-27T00:55:36.897Z,1023.2
2023-05-27T00:56:37.069Z,1023.2
2023-05-27T00:57:36.919Z,1023.2
2023-05-27T00:58:36.918Z,1023.2
2023-05-27T01:16:37.424Z,1023.3
2023-05-27T01:17:37.191Z,1023.3
2023-05-27T01:18:37.130Z,1023.3
2023-05-27T01:19:37.160Z,1023.3
2023-05-27T01:20:37.236Z,1023.3
2023-05-27T01:21:37.144Z,1023.3
2023-05-27T01:22:37.174Z,1023.2
2023-05-27T01:23:37.178Z,1023.2
2023-05-27T01:24:37.169Z,1023.1
2023-05-27T01:25:37.172Z,1023.2
2023-05-27T01:26:37.213Z,1023.2
2023-05-27T01:27:37.242Z,1023.2
2023-05-27T01:28:37.238Z,1023.2
2023-05-27T01:29:37.257Z,1023.2
2023-05-27T01:30:37.272Z,1023.2
2023-05-27T01:31:37.417Z,1023.3
2023-05-27T01:32:37.334Z,1023.2
2023-05-27T01:33:37.316Z,1023.3
2023-05-27T01:34:37.335Z,1023.2
2023-05-27T01:35:37.340Z,1023.2
2023-05-27T01:36:37.333Z,1023.2
2023-05-27T01:37:37.345Z,1023.1
2023-05-27T01:38:37.377Z,1023.3
2023-05-27T01:39:37.381Z,1023.2
2023-05-27T01:40:37.399Z,1023.1
2023-05-27T01:41:37.391Z,1023.2
2023-05-27T01:42:37.485Z,1023.3
2023-05-27T01:43:37.422Z,1023.2
2023-05-27T01:44:37.428Z,1023.2
2023-05-27T01:45:37.459Z,1023.2
2023-05-27T01:46:37.583Z,1023.1
2023-05-27T01:47:37.577Z,1023.0
2023-05-27T01:48:37.497Z,1023.1
2023-05-27T01:49:37.523Z,1023.0
2023-05-27T01:50:37.528Z,1023.0
2023-05-27T01:51:37.530Z,1023.0
2023-05-27T01:52:37.531Z,1023.1
2023-05-27T01:53:37.569Z,1023.1
2023-05-27T01:54:37.577Z,1023.1
2023-05-27T01:55:37.589Z,1023.1
2023-05-27T01:56:37.574Z,1023.1
2023-05-27T01:57:37.593Z,1023.1
2023-05-27T01:58:37.600Z,1023.1
2023-05-27T01:59:37.629Z,1023.1
2023-05-27T02:00:37.677Z,1023.0
2023-05-27T02:01:37.773Z,1023.1
2023-05-27T02:02:37.795Z,1023.0
2023-05-27T02:03:37.825Z,1023.1
2023-05-27T02:04:37.671Z,1023.0
2023-05-27T02:05:37.686Z,1023.1
2023-05-27T02:06:37.689Z,1023.1
2023-05-27T02:07:37.701Z,1023.0
2023-05-27T02:08:37.703Z,1023.0
2023-05-27T02:09:37.727Z,1023.0
2023-05-27T02:10:37.763Z,1023.0
2023-05-27T02:11:37.778Z,1023.0
2023-05-27T02:12:37.778Z,1023.0
2023-05-27T02:13:37.817Z,1023.0
2023-05-27T02:14:37.811Z,1023.0
2023-05-27T02:15:37.876Z,1023.0
2023-05-27T02:16:38.001Z,1023.0
2023-05-27T02:17:38.014Z,1023.0
2023-05-27T02:18:37.864Z,1023.0
2023-05-27T02:19:37.875Z,1023.0
2023-05-27T02:20:37.991Z,1023.0
2023-05-27T02:21:37.907Z,1022.9
2023-05-27T02:22:37.941Z,1022.9
2023-05-27T02:23:37.912Z,1023.0
2023-05-27T02:24:37.943Z,1023.0
2023-05-27T02:25:37.967Z,1023.0
2023-05-27T02:26:37.968Z,1023.0
2023-05-27T02:27:37.989Z,1023.0
2023-05-27T02:28:38.010Z,1023.0
2023-05-27T02:29:38.010Z,1022.9
2023-05-27T02:30:38.127Z,1023.0
2023-05-27T02:31:38.219Z,1022.9
2023-05-27T02:32:38.110Z,1023.0
2023-05-27T02:33:38.073Z,1023.0
2023-05-27T02:34:38.214Z,1023.0
2023-05-27T02:35:38.083Z,1023.0
2023-05-27T02:36:38.097Z,1023.0
2023-05-27T02:37:38.117Z,1023.0
2023-05-27T02:38:38.136Z,1023.0
2023-05-27T02:39:38.153Z,1022.9
2023-05-27T02:40:38.196Z,1022.9
2023-05-27T02:41:38.176Z,1023.0
2023-05-27T02:42:38.202Z,1022.9
2023-05-27T02:43:38.217Z,1022.9
2023-05-27T02:44:38.205Z,1022.9
2023-05-27T02:45:38.241Z,1023.0
2023-05-27T02:46:38.356Z,1023.0
2023-05-27T02:47:38.393Z,1023.0
2023-05-27T02:48:38.280Z,1023.0
2023-05-27T02:49:38.281Z,1023.0
2023-05-27T02:50:38.296Z,1022.9
2023-05-27T02:51:38.313Z,1022.9
2023-05-27T02:52:38.326Z,1023.0
2023-05-27T02:53:38.331Z,1023.0
2023-05-27T02:54:38.370Z,1023.0
2023-05-27T02:55:38.334Z,1023.0
2023-05-27T02:56:38.369Z,1023.0
2023-05-27T02:57:38.380Z,1023.0
2023-05-27T02:58:38.391Z,1023.1
2023-05-27T02:59:38.405Z,1023.1
2023-05-27T03:00:38.411Z,1023.0
2023-05-27T03:01:38.477Z,1023.0
2023-05-27T03:02:38.578Z,1023.0
2023-05-27T03:03:38.701Z,1023.0
2023-05-27T03:04:38.451Z,1023.1
2023-05-27T03:05:38.465Z,1023.1
2023-05-27T03:06:38.518Z,1023.1
2023-05-27T03:07:38.473Z,1023.0
2023-05-27T03:08:38.506Z,1023.0
2023-05-27T03:09:38.542Z,1023.0
2023-05-27T03:10:38.571Z,1023.0
2023-05-27T03:11:38.549Z,1023.1
2023-05-27T03:12:38.540Z,1023.1
2023-05-27T03:13:38.576Z,1023.1
2023-05-27T03:14:38.568Z,1023.0
2023-05-27T03:15:38.575Z,1023.1
2023-05-27T03:16:38.809Z,1023.1
2023-05-27T03:17:38.706Z,1023.0
2023-05-27T03:18:38.620Z,1023.1
2023-05-27T03:19:38.699Z,1023.1
2023-05-27T03:20:38.711Z,1023.1
2023-05-27T03:21:38.657Z,1023.0
2023-05-27T03:22:38.673Z,1023.0
2023-05-27T03:23:38.690Z,1023.0
2023-05-27T03:24:38.716Z,1023.0
2023-05-27T03:25:38.833Z,1023.0
2023-05-27T03:26:38.742Z,1023.1
2023-05-27T03:27:38.744Z,1023.0
2023-05-27T03:28:38.774Z,1023.0
2023-05-27T03:29:38.794Z,1022.9
2023-05-27T03:30:38.783Z,1023.0
2023-05-27T03:31:38.872Z,1023.0
2023-05-27T03:32:38.860Z,1022.9
2023-05-27T03:33:38.850Z,1022.9
2023-05-27T03:34:38.828Z,1023.0
2023-05-27T03:35:38.848Z,1023.0
2023-05-27T03:36:38.861Z,1023.0
2023-05-27T03:37:38.902Z,1023.0
2023-05-27T03:38:38.905Z,1022.9
2023-05-27T03:39:38.897Z,1022.9
2023-05-27T03:40:38.911Z,1022.9
2023-05-27T03:41:38.934Z,1022.9
2023-05-27T03:42:38.966Z,1022.9
2023-05-27T03:43:38.972Z,1022.9
2023-05-27T03:44:39.000Z,1023.0
2023-05-27T03:45:39.054Z,1022.9
2023-05-27T03:46:39.127Z,1022.9
2023-05-27T03:47:39.066Z,1023.0
2023-05-27T03:48:39.023Z,1023.0
2023-05-27T03:49:39.047Z,1023.0
2023-05-27T03:50:40.637Z,1023.0
2023-05-27T03:51:39.073Z,1023.1
2023-05-27T03:52:39.125Z,1023.0
2023-05-27T03:53:39.093Z,1023.1
2023-05-27T03:54:39.092Z,1023.1
2023-05-27T03:55:39.126Z,1023.1
2023-05-27T03:56:39.147Z,1023.1
2023-05-27T03:57:39.147Z,1023.1
2023-05-27T03:58:39.168Z,1023.1
2023-05-27T03:59:39.178Z,1023.1
2023-05-27T04:00:39.197Z,1023.1
2023-05-27T04:01:39.211Z,1023.1
2023-05-27T04:02:39.367Z,1023.0
2023-05-27T04:03:39.462Z,1023.1
2023-05-27T04:04:39.362Z,1023.2
2023-05-27T04:05:39.271Z,1023.1
2023-05-27T04:06:39.257Z,1023.2
2023-05-27T04:07:39.267Z,1023.2
2023-05-27T04:08:39.295Z,1023.2
2023-05-27T04:09:39.318Z,1023.0
2023-05-27T04:10:39.313Z,1023.1
2023-05-27T04:11:39.333Z,1023.2
2023-05-27T04:12:39.338Z,1023.0
2023-05-27T04:13:39.327Z,1023.1
2023-05-27T04:14:39.337Z,1023.1
2023-05-27T04:15:39.356Z,1023.1
2023-05-27T04:16:39.458Z,1023.2
2023-05-27T04:17:39.374Z,1023.2
2023-05-27T04:18:39.369Z,1023.2
2023-05-27T04:19:39.368Z,1023.1
2023-05-27T04:20:39.441Z,1023.1
2023-05-27T04:21:39.438Z,1023.1
2023-05-27T04:22:39.384Z,1023.1
2023-05-27T04:23:39.428Z,1023.1
2023-05-27T04:24:39.415Z,1023.0
2023-05-27T04:25:39.403Z,1023.0
2023-05-27T04:26:39.428Z,1023.1
2023-05-27T04:27:39.432Z,1023.0
2023-05-27T04:28:39.421Z,1023.1
2023-05-27T04:29:39.484Z,1023.1
2023-05-27T04:30:39.436Z,1023.0
2023-05-27T04:31:39.495Z,1022.9
2023-05-27T04:32:39.675Z,1023.0
2023-05-27T04:33:39.459Z,1023.0
2023-05-27T04:34:39.476Z,1023.0
2023-05-27T04:35:39.486Z,1023.0
2023-05-27T04:36:39.506Z,1023.1
2023-05-27T04:37:39.496Z,1023.0
2023-05-27T04:38:39.493Z,1023.1
2023-05-27T04:39:39.508Z,1023.1
2023-05-27T04:40:39.530Z,1023.1
2023-05-27T04:41:39.540Z,1023.1
2023-05-27T04:42:39.788Z,1023.1
2023-05-27T04:43:39.523Z,1023.0
2023-05-27T04:44:39.530Z,1023.1
2023-05-27T04:45:39.538Z,1023.1
2023-05-27T04:46:39.634Z,1023.1
2023-05-27T04:47:40.034Z,1023.1
2023-05-27T04:48:39.550Z,1023.1
2023-05-27T04:49:39.580Z,1023.0
2023-05-27T04:50:39.555Z,1023.0
2023-05-27T04:51:39.684Z,1023.0
2023-05-27T04:52:39.614Z,1023.0
2023-05-27T04:53:39.585Z,1023.0
2023-05-27T04:54:39.612Z,1023.0
2023-05-27T04:55:39.621Z,1023.0
2023-05-27T04:56:39.607Z,1023.0
2023-05-27T04:57:39.620Z,1023.0
2023-05-27T04:58:39.623Z,1023.0
2023-05-27T04:59:39.624Z,1023.0
2023-05-27T05:00:39.642Z,1023.0
2023-05-27T05:01:39.784Z,1023.0
2023-05-27T05:02:39.688Z,1023.0
2023-05-27T05:03:39.781Z,1023.0
2023-05-27T05:04:39.660Z,1023.0
2023-05-27T05:05:41.715Z,1023.0
2023-05-27T05:06:39.653Z,1023.0
2023-05-27T05:07:39.668Z,1023.0
2023-05-27T05:08:39.667Z,1023.0
2023-05-27T05:09:39.672Z,1023.0
2023-05-27T05:10:39.680Z,1023.1
2023-05-27T05:11:39.710Z,1023.0
2023-05-27T05:12:39.731Z,1023.0
2023-05-27T05:13:39.745Z,1023.0
2023-05-27T05:14:39.721Z,1023.1
2023-05-27T05:15:39.744Z,1023.0
2023-05-27T05:16:39.841Z,1023.0
2023-05-27T05:17:39.868Z,1023.0
2023-05-27T05:18:39.767Z,1023.0
2023-05-27T05:19:39.772Z,1023.0
2023-05-27T05:20:39.818Z,1022.9
2023-05-27T05:21:39.771Z,1022.9
2023-05-27T05:22:39.788Z,1022.9
2023-05-27T05:23:39.792Z,1023.0
2023-05-27T05:24:39.798Z,1022.9
2023-05-27T05:25:39.834Z,1022.9
2023-05-27T05:26:39.817Z,1022.8
2023-05-27T05:27:39.818Z,1022.8
2023-05-27T05:28:39.831Z,1022.9
2023-05-27T05:29:39.832Z,1023.0
2023-05-27T05:30:39.840Z,1022.9
2023-05-27T05:31:39.897Z,1022.9
2023-05-27T05:32:39.932Z,1022.9
2023-05-27T05:33:39.850Z,1022.9
2023-05-27T05:34:39.851Z,1022.9
2023-05-27T05:35:39.856Z,1022.8
2023-05-27T05:36:39.868Z,1022.8
2023-05-27T05:37:39.878Z,1022.8
2023-05-27T05:38:39.894Z,1022.9
2023-05-27T05:39:39.881Z,1022.9
2023-05-27T05:40:39.923Z,1023.0
2023-05-27T05:41:39.889Z,1023.0
2023-05-27T05:42:39.917Z,1022.9
2023-05-27T05:43:39.908Z,1023.0
2023-05-27T05:44:39.921Z,1023.0
2023-05-27T05:45:39.938Z,1023.0
2023-05-27T05:46:40.102Z,1023.0
2023-05-27T05:47:40.027Z,1023.0
2023-05-27T05:48:40.033Z,1023.0
2023-05-27T05:49:39.952Z,1023.0
2023-05-27T05:50:40.223Z,1023.0
2023-05-27T05:51:39.959Z,1023.0
2023-05-27T05:52:40.062Z,1023.0
2023-05-27T05:53:39.995Z,1023.0
2023-05-27T05:54:40.115Z,1023.0
2023-05-27T05:55:39.983Z,1023.0
2023-05-27T05:56:40.017Z,1023.0
2023-05-27T05:57:40.029Z,1022.9
2023-05-27T05:58:39.990Z,1023.0
2023-05-27T05:59:40.012Z,1023.0
2023-05-27T06:00:40.013Z,1023.0
2023-05-27T06:01:40.026Z,1023.1
2023-05-27T06:02:40.236Z,1023.0
2023-05-27T06:03:40.709Z,1023.0
2023-05-27T06:04:40.105Z,1023.0
2023-05-27T06:05:40.066Z,1023.1
2023-05-27T06:06:40.052Z,1023.0
2023-05-27T06:07:40.058Z,1023.0
2023-05-27T06:08:40.073Z,1023.0
2023-05-27T06:09:40.099Z,1023.0
2023-05-27T06:10:40.106Z,1023.0
2023-05-27T06:11:40.107Z,1023.0
2023-05-27T06:12:40.180Z,1023.0
2023-05-27T06:13:40.130Z,1023.0
2023-05-27T06:14:40.112Z,1023.0
2023-05-27T06:15:40.142Z,1023.0
2023-05-27T06:16:40.261Z,1023.0
2023-05-27T06:17:40.196Z,1023.0
2023-05-27T06:18:40.150Z,1023.1
2023-05-27T06:19:40.173Z,1023.1
2023-05-27T06:20:40.358Z,1023.0
2023-05-27T06:21:40.178Z,1023.1
2023-05-27T06:22:40.185Z,1023.1
2023-05-27T06:23:40.196Z,1023.0
2023-05-27T06:24:40.198Z,1023.0
2023-05-27T06:25:40.201Z,1023.0
2023-05-27T06:26:40.208Z,1023.0
2023-05-27T06:27:40.211Z,1023.0
2023-05-27T06:28:40.231Z,1023.0
2023-05-27T06:29:40.260Z,1023.1
2023-05-27T06:30:40.245Z,1023.0
2023-05-27T06:31:40.300Z,1023.0
2023-05-27T06:32:40.522Z,1023.0
2023-05-27T06:33:40.257Z,1023.1
2023-05-27T06:34:40.264Z,1023.0
2023-05-27T06:35:40.270Z,1023.1
2023-05-27T06:36:40.269Z,1023.0
2023-05-27T06:37:40.272Z,1023.1
2023-05-27T06:38:40.282Z,1023.1
2023-05-27T06:39:40.286Z,1023.0
2023-05-27T06:40:40.331Z,1023.1
2023-05-27T06:41:40.302Z,1023.0
2023-05-27T06:42:40.311Z,1023.1
2023-05-27T06:43:40.331Z,1023.0
2023-05-27T06:44:40.332Z,1023.1
2023-05-27T06:46:02.949Z,1023.0
2023-05-27T06:46:40.445Z,1023.0
2023-05-27T06:47:40.451Z,1023.1
2023-05-27T06:48:40.360Z,1023.0
2023-05-27T06:49:40.383Z,1023.0
2023-05-27T06:50:40.363Z,1023.0
2023-05-27T06:51:40.370Z,1023.0
2023-05-27T06:52:40.385Z,1023.0
2023-05-27T06:53:40.379Z,1023.0
2023-05-27T06:54:40.388Z,1023.1
2023-05-27T06:55:40.389Z,1023.0
2023-05-27T06:56:40.396Z,1023.0
2023-05-27T06:57:40.416Z,1023.1
2023-05-27T06:58:40.414Z,1023.0
2023-05-27T06:59:40.434Z,1023.0
2023-05-27T07:00:40.447Z,1022.9
2023-05-27T07:01:40.603Z,1022.9
2023-05-27T07:02:40.485Z,1023.0
2023-05-27T07:03:40.466Z,1023.0
2023-05-27T07:04:40.460Z,1022.9
2023-05-27T07:05:40.633Z,1023.0
2023-05-27T07:06:40.458Z,1023.0
2023-05-27T07:07:40.483Z,1023.0
2023-05-27T07:08:40.488Z,1022.9
2023-05-27T07:09:40.501Z,1022.8
2023-05-27T07:10:40.531Z,1022.9
2023-05-27T07:11:40.496Z,1022.9
2023-05-27T07:12:40.545Z,1022.9
2023-05-27T07:13:40.538Z,1023.0
2023-05-27T07:14:40.512Z,1022.9
2023-05-27T07:15:40.583Z,1022.9
2023-05-27T07:16:40.531Z,1022.9
2023-05-27T07:17:40.615Z,1022.9
2023-05-27T07:18:40.694Z,1022.9
2023-05-27T07:19:40.552Z,1022.9
2023-05-27T07:20:40.704Z,1022.9
2023-05-27T07:21:40.553Z,1022.9
2023-05-27T07:22:40.577Z,1022.8
2023-05-27T07:23:40.621Z,1022.9
2023-05-27T07:24:40.589Z,1022.8
2023-05-27T07:25:40.572Z,1022.9
2023-05-27T07:26:40.599Z,1022.8
2023-05-27T07:27:40.608Z,1022.9
2023-05-27T07:28:40.624Z,1022.9
2023-05-27T07:29:40.640Z,1022.9
2023-05-27T07:30:40.647Z,1022.8
2023-05-27T07:31:40.848Z,1022.9
2023-05-27T07:32:40.688Z,1022.8
2023-05-27T07:33:40.662Z,1022.8
2023-05-27T07:34:40.652Z,1022.8
2023-05-27T07:35:40.655Z,1022.8
2023-05-27T07:36:40.674Z,1022.8
2023-05-27T07:37:40.708Z,1022.8
2023-05-27T07:38:40.679Z,1022.8
2023-05-27T07:39:40.687Z,1022.8
2023-05-27T07:40:40.703Z,1022.8
2023-05-27T07:41:40.694Z,1022.8
2023-05-27T07:42:40.696Z,1022.8
2023-05-27T07:43:40.712Z,1022.8
2023-05-27T07:44:40.712Z,1022.8
2023-05-27T07:45:40.719Z,1022.9
2023-05-27T07:46:40.801Z,1022.8
2023-05-27T07:47:40.790Z,1022.8
2023-05-27T07:48:40.766Z,1022.8
2023-05-27T07:49:43.178Z,1022.8
2023-05-27T07:50:40.762Z,1022.7
2023-05-27T07:51:40.748Z,1022.8
2023-05-27T07:52:40.840Z,1022.8
2023-05-27T07:53:40.787Z,1022.8
2023-05-27T07:54:54.983Z,1022.8
2023-05-27T07:55:40.777Z,1022.8
2023-05-27T07:56:40.786Z,1022.8
2023-05-27T07:57:40.796Z,1022.7
2023-05-27T07:58:40.794Z,1022.6
2023-05-27T07:59:40.806Z,1022.6
2023-05-27T08:00:40.938Z,1022.6
2023-05-27T08:01:40.856Z,1022.7
2023-05-27T08:02:40.986Z,1022.7
2023-05-27T08:03:40.943Z,1022.7
2023-05-27T08:04:40.945Z,1022.7
2023-05-27T08:05:40.840Z,1022.6
2023-05-27T08:06:40.867Z,1022.6
2023-05-27T08:07:40.887Z,1022.6
2023-05-27T08:08:40.859Z,1022.6
2023-05-27T08:09:40.915Z,1022.6
2023-05-27T08:10:40.875Z,1022.6
2023-05-27T08:11:40.917Z,1022.6
2023-05-27T08:12:40.905Z,1022.6
2023-05-27T08:13:40.907Z,1022.6
2023-05-27T08:14:40.911Z,1022.5
2023-05-27T08:15:40.918Z,1022.5
2023-05-27T08:16:45.028Z,1022.5
2023-05-27T08:17:41.074Z,1022.5
2023-05-27T08:18:41.034Z,1022.5
2023-05-27T08:19:40.951Z,1022.5
2023-05-27T08:20:41.052Z,1022.5
2023-05-27T08:21:40.966Z,1022.5
2023-05-27T08:22:40.965Z,1022.5
2023-05-27T08:23:41.041Z,1022.5
2023-05-27T08:24:40.974Z,1022.5
2023-05-27T08:25:40.980Z,1022.5
2023-05-27T08:26:40.980Z,1022.4
2023-05-27T08:27:41.000Z,1022.5
2023-05-27T08:28:41.014Z,1022.4
2023-05-27T08:29:41.002Z,1022.4
2023-05-27T08:30:41.017Z,1022.5
2023-05-27T08:31:41.167Z,1022.4
2023-05-27T08:32:41.065Z,1022.4
2023-05-27T08:33:41.030Z,1022.3
2023-05-27T08:34:41.055Z,1022.4
2023-05-27T08:35:41.051Z,1022.4
2023-05-27T08:36:41.046Z,1022.4
2023-05-27T08:37:41.059Z,1022.4
2023-05-27T08:38:41.073Z,1022.4
2023-05-27T08:39:41.072Z,1022.3
2023-05-27T08:40:41.083Z,1022.3
2023-05-27T08:41:41.080Z,1022.4
2023-05-27T08:42:41.095Z,1022.3
2023-05-27T08:43:41.122Z,1022.3
2023-05-27T08:44:41.095Z,1022.3
2023-05-27T08:45:41.276Z,1022.2
2023-05-27T08:46:41.274Z,1022.3
2023-05-27T08:47:41.269Z,1022.3
2023-05-27T08:48:41.126Z,1022.2
2023-05-27T08:49:41.149Z,1022.3
2023-05-27T08:50:41.187Z,1022.3
2023-05-27T08:51:41.142Z,1022.2
2023-05-27T08:52:41.150Z,1022.2
2023-05-27T08:53:41.160Z,1022.2
2023-05-27T08:54:41.174Z,1022.2
2023-05-27T08:55:41.184Z,1022.2
2023-05-27T08:56:41.364Z,1022.2
2023-05-27T08:57:41.198Z,1022.2
2023-05-27T08:58:41.206Z,1022.2
2023-05-27T08:59:41.216Z,1022.1
2023-05-27T09:00:41.218Z,1022.1
2023-05-27T09:01:41.277Z,1022.0
2023-05-27T09:02:41.402Z,1022.1
2023-05-27T09:03:41.341Z,1022.0
2023-05-27T09:04:41.285Z,1022.0
2023-05-27T09:05:41.250Z,1022.0
2023-05-27T09:06:41.277Z,1022.0
2023-05-27T09:07:41.275Z,1022.0
2023-05-27T09:08:51.628Z,1022.0
2023-05-27T09:09:41.294Z,1022.1
2023-05-27T09:10:41.437Z,1022.0
2023-05-27T09:11:41.328Z,1022.0
2023-05-27T09:12:41.333Z,1022.0
2023-05-27T09:13:41.313Z,1022.0
2023-05-27T09:14:41.332Z,1022.0
2023-05-27T09:15:41.359Z,1022.0
2023-05-27T09:16:41.392Z,1021.9
2023-05-27T09:17:41.450Z,1022.0
2023-05-27T09:18:41.437Z,1022.0
2023-05-27T09:19:45.215Z,1022.0
2023-05-27T09:20:41.444Z,1021.9
2023-05-27T09:21:41.514Z,1022.0
2023-05-27T09:22:41.423Z,1022.0
2023-05-27T09:23:41.432Z,1021.9
2023-05-27T09:24:41.440Z,1021.9
2023-05-27T09:25:41.458Z,1021.9
2023-05-27T09:26:41.431Z,1021.9
2023-05-27T09:27:41.457Z,1021.9
2023-05-27T09:28:41.693Z,1022.0
2023-05-27T09:29:41.439Z,1022.0
2023-05-27T09:30:41.447Z,1022.0
2023-05-27T09:31:41.674Z,1021.9
2023-05-27T09:32:41.569Z,1021.9
2023-05-27T09:33:41.651Z,1022.0
2023-05-27T09:34:41.520Z,1021.9
2023-05-27T09:35:41.507Z,1021.9
2023-05-27T09:36:41.494Z,1021.9
2023-05-27T09:37:41.514Z,1021.9
2023-05-27T09:38:41.524Z,1021.9
2023-05-27T09:39:41.517Z,1021.9
2023-05-27T09:40:41.551Z,1021.9
2023-05-27T09:41:41.650Z,1021.9
2023-05-27T09:42:41.535Z,1021.9
2023-05-27T09:43:45.293Z,1021.9
2023-05-27T09:44:41.555Z,1022.0
2023-05-27T09:45:41.658Z,1021.9
2023-05-27T09:46:41.584Z,1022.0
2023-05-27T09:47:41.639Z,1021.9
2023-05-27T09:48:41.629Z,1021.9
2023-05-27T09:49:41.580Z,1021.9
2023-05-27T09:50:41.594Z,1021.9
2023-05-27T09:51:41.593Z,1021.9
2023-05-27T09:52:49.353Z,1021.9
2023-05-27T09:53:41.612Z,1021.9
2023-05-27T09:54:41.649Z,1021.8
2023-05-27T09:55:41.643Z,1021.8
2023-05-27T09:56:41.627Z,1021.8
2023-05-27T09:57:41.646Z,1021.8
2023-05-27T09:58:41.659Z,1021.8
2023-05-27T09:59:41.774Z,1021.7
2023-05-27T10:00:41.663Z,1021.7
2023-05-27T10:01:41.786Z,1021.8
2023-05-27T10:02:41.775Z,1021.7
2023-05-27T10:03:41.716Z,1021.8
2023-05-27T10:04:41.784Z,1021.8
2023-05-27T10:05:41.930Z,1021.7
2023-05-27T10:06:41.734Z,1021.7
2023-05-27T10:08:06.027Z,1021.6
2023-05-27T10:08:41.716Z,1021.6
2023-05-27T10:09:41.730Z,1021.7
2023-05-27T10:10:41.766Z,1021.6
2023-05-27T10:11:41.742Z,1021.7
2023-05-27T10:12:41.732Z,1021.7
2023-05-27T10:13:41.759Z,1021.6
2023-05-27T10:14:41.753Z,1021.7
2023-05-27T10:15:41.994Z,1021.6
2023-05-27T10:16:41.812Z,1021.6
2023-05-27T10:17:41.930Z,1021.6
2023-05-27T10:18:41.790Z,1021.6
2023-05-27T10:19:41.800Z,1021.6
2023-05-27T10:20:42.004Z,1021.7
2023-05-27T10:21:41.820Z,1021.7
2023-05-27T10:22:43.448Z,1021.6
2023-05-27T10:23:41.829Z,1021.6
2023-05-27T10:24:41.836Z,1021.6
2023-05-27T10:25:41.877Z,1021.6
2023-05-27T10:26:41.872Z,1021.5
2023-05-27T10:27:41.865Z,1021.5
2023-05-27T10:28:41.895Z,1021.5
2023-05-27T10:29:41.921Z,1021.5
2023-05-27T10:30:41.871Z,1021.6
2023-05-27T10:31:42.087Z,1021.5
2023-05-27T10:32:41.947Z,1021.5
2023-05-27T10:33:41.897Z,1021.5
2023-05-27T10:34:41.909Z,1021.5
2023-05-27T10:35:41.920Z,1021.5
2023-05-27T10:36:41.929Z,1021.5
2023-05-27T10:37:41.921Z,1021.5
2023-05-27T10:38:41.972Z,1021.6
2023-05-27T10:39:41.942Z,1021.5
2023-05-27T10:40:41.946Z,1021.5
2023-05-27T10:41:41.984Z,1021.5
2023-05-27T10:42:41.983Z,1021.5
2023-05-27T10:43:41.975Z,1021.5
2023-05-27T10:44:41.980Z,1021.5
2023-05-27T10:45:42.410Z,1021.5
2023-05-27T10:46:42.402Z,1021.4
2023-05-27T10:47:42.078Z,1021.6
2023-05-27T10:48:42.016Z,1021.4
2023-05-27T10:49:42.032Z,1021.5
2023-05-27T10:50:42.023Z,1021.4
2023-05-27T10:51:42.053Z,1021.4
2023-05-27T10:52:42.056Z,1021.4
2023-05-27T10:53:42.051Z,1021.4
2023-05-27T10:54:42.070Z,1021.4
2023-05-27T10:55:42.087Z,1021.4
2023-05-27T10:56:42.081Z,1021.4
2023-05-27T10:57:42.095Z,1021.4
2023-05-27T10:58:42.085Z,1021.3
2023-05-27T10:59:42.111Z,1021.4
2023-05-27T11:00:42.116Z,1021.2
2023-05-27T11:01:42.243Z,1021.3
2023-05-27T11:02:42.192Z,1021.2
2023-05-27T11:03:42.239Z,1021.2
2023-05-27T11:04:42.164Z,1021.3
2023-05-27T11:05:42.174Z,1021.3
2023-05-27T11:06:42.197Z,1021.4
2023-05-27T11:07:42.250Z,1021.3
2023-05-27T11:08:42.179Z,1021.3
2023-05-27T11:09:42.188Z,1021.3
2023-05-27T11:10:42.213Z,1021.3
2023-05-27T11:11:42.198Z,1021.4
2023-05-27T11:12:42.216Z,1021.3
2023-05-27T11:13:45.802Z,1021.3
2023-05-27T11:14:42.229Z,1021.3
2023-05-27T11:15:42.247Z,1021.2
2023-05-27T11:16:42.372Z,1021.3
2023-05-27T11:17:42.360Z,1021.2
2023-05-27T11:18:42.255Z,1021.2
2023-05-27T11:19:42.265Z,1021.2
2023-05-27T11:20:42.376Z,1021.2
2023-05-27T11:21:42.276Z,1021.2
2023-05-27T11:22:42.303Z,1021.1
2023-05-27T11:23:42.329Z,1021.1
2023-05-27T11:24:42.323Z,1021.2
2023-05-27T11:25:42.340Z,1021.1
2023-05-27T11:26:42.331Z,1021.1
2023-05-27T11:27:42.363Z,1021.1
2023-05-27T11:28:42.342Z,1021.1
2023-05-27T11:29:42.354Z,1021.1
2023-05-27T11:30:42.359Z,1021.1
2023-05-27T11:31:42.415Z,1021.0
2023-05-27T11:32:48.309Z,1021.1
2023-05-27T11:33:42.548Z,1021.1
2023-05-27T11:34:42.399Z,1021.0
2023-05-27T11:35:42.408Z,1021.0
2023-05-27T11:36:42.426Z,1021.0
2023-05-27T11:37:42.439Z,1021.0
2023-05-27T11:38:42.443Z,1020.9
2023-05-27T11:39:42.459Z,1020.9
2023-05-27T11:40:42.452Z,1020.9
2023-05-27T11:41:42.457Z,1020.9
2023-05-27T11:42:42.472Z,1020.9
2023-05-27T11:43:42.466Z,1021.0
2023-05-27T11:44:42.482Z,1020.9
2023-05-27T11:45:42.534Z,1020.9
2023-05-27T11:46:42.577Z,1020.8
2023-05-27T11:47:42.649Z,1020.9
2023-05-27T11:48:42.505Z,1020.8
2023-05-27T11:49:42.525Z,1020.8
2023-05-27T11:50:44.218Z,1020.8
2023-05-27T11:51:42.545Z,1020.9
2023-05-27T11:52:42.539Z,1020.8
2023-05-27T11:53:42.550Z,1020.7
2023-05-27T11:54:57.114Z,1020.7
2023-05-27T11:55:42.547Z,1020.8
2023-05-27T11:56:42.562Z,1020.7
2023-05-27T11:57:42.568Z,1020.6
2023-05-27T11:58:42.589Z,1020.7
2023-05-27T11:59:42.602Z,1020.7
2023-05-27T12:00:45.603Z,1020.6
2023-05-27T12:01:42.609Z,1020.7
2023-05-27T12:02:43.140Z,1020.8
2023-05-27T12:03:42.868Z,1020.7
2023-05-27T12:04:42.641Z,1020.6
2023-05-27T12:05:42.802Z,1020.6
2023-05-27T12:06:42.652Z,1020.5
2023-05-27T12:07:42.661Z,1020.5
2023-05-27T12:08:42.714Z,1020.5
2023-05-27T12:09:42.684Z,1020.5
2023-05-27T12:10:42.748Z,1020.5
2023-05-27T12:11:42.773Z,1020.5
2023-05-27T12:12:42.704Z,1020.4
2023-05-27T12:13:42.996Z,1020.5
2023-05-27T12:14:42.734Z,1020.5
2023-05-27T12:15:42.811Z,1020.5
2023-05-27T12:16:42.874Z,1020.4
2023-05-27T12:17:42.795Z,1020.4
2023-05-27T12:18:42.747Z,1020.3
2023-05-27T12:19:42.767Z,1020.3
2023-05-27T12:20:42.865Z,1020.3
2023-05-27T12:21:42.833Z,1020.3
2023-05-27T12:22:42.789Z,1020.2
2023-05-27T12:23:42.804Z,1020.3
2023-05-27T12:24:42.834Z,1020.3
2023-05-27T12:25:42.809Z,1020.3
2023-05-27T12:26:42.836Z,1020.3
2023-05-27T12:27:42.862Z,1020.2
2023-05-27T12:28:42.840Z,1020.2
2023-05-27T12:29:42.857Z,1020.2
2023-05-27T12:30:44.335Z,1020.2
2023-05-27T12:31:42.984Z,1020.2
2023-05-27T12:32:43.069Z,1020.1
2023-05-27T12:33:42.900Z,1020.2
2023-05-27T12:34:42.879Z,1020.1
2023-05-27T12:35:42.902Z,1020.0
2023-05-27T12:36:42.908Z,1020.1
2023-05-27T12:37:42.963Z,1020.1
2023-05-27T12:38:42.921Z,1020.1
2023-05-27T12:39:42.934Z,1020.0
2023-05-27T12:40:42.956Z,1020.0
2023-05-27T12:41:42.968Z,1020.1
2023-05-27T12:42:42.974Z,1020.1
2023-05-27T12:43:42.967Z,1020.1
2023-05-27T12:44:42.966Z,1020.0
2023-05-27T12:45:43.007Z,1020.1
2023-05-27T12:46:43.107Z,1020.0
2023-05-27T12:47:43.156Z,1020.0
2023-05-27T12:48:43.012Z,1020.0
2023-05-27T12:49:43.042Z,1020.0
2023-05-27T12:50:43.021Z,1020.0
2023-05-27T12:51:43.033Z,1019.9
2023-05-27T12:52:43.036Z,1020.0
2023-05-27T12:53:43.060Z,1019.9
2023-05-27T12:54:43.062Z,1019.9
2023-05-27T12:55:43.072Z,1019.8
2023-05-27T12:56:43.078Z,1019.9
2023-05-27T12:57:43.105Z,1019.8
2023-05-27T12:58:43.117Z,1019.9
2023-05-27T12:59:43.101Z,1019.8
2023-05-27T13:00:43.177Z,1019.7
2023-05-27T13:01:43.127Z,1019.8
2023-05-27T13:02:43.241Z,1019.7